Time;durP1;ratioP1;P1;durP2;ratioP2;P2;SDS_P1;SDS_P2;PMS_P1;PMS_P2;Temp;Humidity;BMP_temperature;BMP_pressure;BME280_temperature;BME280_humidity;BME280_pressure;Samples;Min_cycle;Max_cycle;Signal;HPM_P1;HPM_P2
2024/04/12 00:01:13;;;;;;;;;;;;;;;13.91;95.87;103194.03;107073;1275;22495;-50
2024/04/12 00:03:41;;;;;;;;;;;;;;;13.91;95.92;103193.32;107101;1274;22493;-46
2024/04/12 00:06:15;;;;;;;;;;;;;;;13.90;95.89;103189.62;107465;1273;22450;-45
2024/04/12 00:08:46;;;;;;;;;;;;;;;13.89;95.82;103180.59;106914;1273;24351;-44
2024/04/12 00:11:16;;;;;;;;;;;;;;;13.87;95.76;103182.09;107148;1275;22443;-47
2024/04/12 00:13:43;;;;;;;;;;;;;;;13.86;95.84;103175.92;106922;1275;22786;-45
2024/04/12 00:16:10;;;;;;;;;;;;;;;13.85;95.70;103171.50;106832;1275;25252;-45
2024/04/12 00:18:37;;;;;;;;;;;;;;;13.84;95.74;103161.60;106945;1275;22472;-46
2024/04/12 00:21:05;;;;;;;;;;;;;;;13.81;95.45;103156.69;107170;1275;23854;-48
2024/04/12 00:23:35;;;;;;;;;;;;;;;13.81;95.65;103156.85;107114;1275;23498;-45
2024/04/12 00:26:03;;;;;;;;;;;;;;;13.80;95.52;103150.67;107081;1275;22536;-45
2024/04/12 00:28:30;;;;;;;;;;;;;;;13.80;95.70;103148.55;107073;1275;22634;-46
2024/04/12 00:30:59;;;;;;;;;;;;;;;13.81;95.73;103148.00;106832;1275;23108;-45
2024/04/12 00:33:31;;;;;;;;;;;;;;;13.81;95.71;103144.97;106904;1275;22444;-45
2024/04/12 00:36:06;;;;;;;;;;;;;;;13.80;95.63;103139.66;106961;1275;22654;-45
2024/04/12 00:38:36;;;;;;;;;;;;;;;13.78;95.69;103140.79;107082;1275;22450;-48
2024/04/12 00:41:11;;;;;;;;;;;;;;;13.79;95.84;103136.34;106972;1275;24289;-46
2024/04/12 00:43:44;;;;;;;;;;;;;;;13.80;95.74;103138.45;106826;1275;22676;-45
2024/04/12 00:46:19;;;;;;;;;;;;;;;13.80;95.83;103139.31;106974;1275;22738;-46
2024/04/12 00:48:46;;;;;;;;;;;;;;;13.83;95.87;103133.55;106967;1274;24578;-44
2024/04/12 00:51:15;;;;;;;;;;;;;;;13.83;95.78;103132.09;106968;1275;22524;-45
2024/04/12 00:53:44;;;;;;;;;;;;;;;13.85;95.83;103128.67;106876;1275;22533;-47
2024/04/12 00:56:13;;;;;;;;;;;;;;;13.84;95.77;103133.31;106962;1275;24209;-46
2024/04/12 00:58:41;;;;;;;;;;;;;;;13.84;95.78;103127.30;106903;1275;25217;-46
2024/04/12 01:01:15;;;;;;;;;;;;;;;13.82;95.65;103119.89;107164;1275;25368;-44
2024/04/12 01:03:46;;;;;;;;;;;;;;;13.81;95.73;103123.48;107006;1275;22455;-47
2024/04/12 01:06:17;;;;;;;;;;;;;;;13.79;95.71;103124.25;106892;1275;22437;-49
2024/04/12 01:08:44;;;;;;;;;;;;;;;13.78;95.83;103117.86;106888;1275;25393;-46
2024/04/12 01:11:14;;;;;;;;;;;;;;;13.77;95.89;103110.27;106999;1275;22595;-46
2024/04/12 01:13:41;;;;;;;;;;;;;;;13.79;95.99;103117.13;106993;1273;22444;-46
2024/04/12 01:16:08;;;;;;;;;;;;;;;13.81;95.96;103116.88;107079;1275;22664;-47
2024/04/12 01:18:35;;;;;;;;;;;;;;;13.82;95.87;103107.81;107032;1275;22791;-49
2024/04/12 01:21:10;;;;;;;;;;;;;;;13.82;95.84;103098.71;107123;1275;24248;-50
2024/04/12 01:23:37;;;;;;;;;;;;;;;13.81;95.67;103096.98;107129;1274;22525;-50
2024/04/12 01:26:09;;;;;;;;;;;;;;;13.81;95.76;103095.03;106906;1275;23853;-47
2024/04/12 01:28:37;;;;;;;;;;;;;;;13.80;95.59;103094.89;106920;1275;26007;-49
2024/04/12 01:31:05;;;;;;;;;;;;;;;13.79;95.69;103094.39;106982;1275;22548;-49
2024/04/12 01:33:36;;;;;;;;;;;;;;;13.78;95.70;103089.81;107050;1275;22525;-46
2024/04/12 01:36:10;;;;;;;;;;;;;;;13.78;95.81;103080.58;107215;1275;24206;-49
2024/04/12 01:38:38;;;;;;;;;;;;;;;13.79;95.84;103068.98;107116;1275;24237;-51
2024/04/12 01:41:05;;;;;;;;;;;;;;;13.80;95.81;103066.45;107071;1275;22499;-44
2024/04/12 01:43:38;;;;;;;;;;;;;;;13.79;95.64;103066.31;107026;1275;22518;-46
2024/04/12 01:46:07;;;;;;;;;;;;;;;13.77;95.55;103067.81;107080;1275;22504;-46
2024/04/12 01:48:35;;;;;;;;;;;;;;;13.75;95.47;103070.70;107031;1275;22509;-46
2024/04/12 01:51:03;;;;;;;;;;;;;;;13.72;95.46;103060.49;107119;1272;23895;-45
2024/04/12 01:53:37;;;;;;;;;;;;;;;13.69;95.44;103069.33;107018;1275;22681;-46
2024/04/12 01:56:05;;;;;;;;;;;;;;;13.70;95.63;103074.98;107022;1275;24285;-44
2024/04/12 01:58:34;;;;;;;;;;;;;;;13.70;95.52;103068.73;106895;1275;22506;-45
2024/04/12 02:01:02;;;;;;;;;;;;;;;13.70;95.44;103074.08;106942;1275;25924;-46
2024/04/12 02:03:30;;;;;;;;;;;;;;;13.71;95.49;103077.08;106898;1272;22468;-45
2024/04/12 02:05:58;;;;;;;;;;;;;;;13.71;95.51;103081.88;106899;1275;322072;-46
2024/04/12 02:08:24;;;;;;;;;;;;;;;13.70;95.47;103077.63;106959;1275;22453;-45
2024/04/12 02:10:53;;;;;;;;;;;;;;;13.69;95.33;103079.27;106987;1275;22939;-45
2024/04/12 02:13:22;;;;;;;;;;;;;;;13.68;95.26;103090.85;107144;1275;23497;-47
2024/04/12 02:15:53;;;;;;;;;;;;;;;13.65;95.23;103087.20;107003;1275;25345;-46
2024/04/12 02:18:21;;;;;;;;;;;;;;;13.66;95.18;103086.31;106961;1275;23160;-47
2024/04/12 02:20:49;;;;;;;;;;;;;;;13.65;95.06;103082.98;107192;1275;24358;-46
2024/04/12 02:23:19;;;;;;;;;;;;;;;13.64;94.93;103085.13;107153;1275;24303;-54
2024/04/12 02:25:47;;;;;;;;;;;;;;;13.63;94.67;103085.16;107089;1275;22686;-48
2024/04/12 02:28:16;;;;;;;;;;;;;;;13.60;94.75;103082.93;107063;1275;25271;-48
2024/04/12 02:30:54;;;;;;;;;;;;;;;13.58;94.51;103082.13;107135;1275;22649;-44
2024/04/12 02:33:22;;;;;;;;;;;;;;;13.53;94.57;103082.27;107071;1275;25345;-45
2024/04/12 02:35:59;;;;;;;;;;;;;;;13.51;94.53;103085.00;106981;1275;22498;-46
2024/04/12 02:38:26;;;;;;;;;;;;;;;13.50;94.53;103084.72;107007;1275;22781;-45
2024/04/12 02:40:53;;;;;;;;;;;;;;;13.49;94.55;103088.84;107006;1275;22637;-45
2024/04/12 02:43:24;;;;;;;;;;;;;;;13.48;94.59;103089.92;106867;1275;23476;-46
2024/04/12 02:45:52;;;;;;;;;;;;;;;13.47;94.59;103094.39;106972;1273;22497;-45
2024/04/12 02:48:22;;;;;;;;;;;;;;;13.48;94.69;103091.52;106957;1275;23875;-44
2024/04/12 02:50:56;;;;;;;;;;;;;;;13.49;94.70;103088.64;106959;1273;25344;-45
2024/04/12 02:53:24;;;;;;;;;;;;;;;13.48;94.54;103087.77;106797;1275;22513;-46
2024/04/12 02:56:00;;;;;;;;;;;;;;;13.48;94.60;103090.98;106902;1275;24199;-46
2024/04/12 02:58:38;;;;;;;;;;;;;;;13.48;94.69;103086.36;107012;1266;22442;-44
2024/04/12 03:01:07;;;;;;;;;;;;;;;13.51;94.82;103088.58;106951;1275;24034;-44
2024/04/12 03:03:36;;;;;;;;;;;;;;;13.52;94.61;103090.34;107094;1275;24253;-45
2024/04/12 03:06:05;;;;;;;;;;;;;;;13.52;94.52;103082.52;107218;1275;22529;-46
2024/04/12 03:08:32;;;;;;;;;;;;;;;13.52;94.46;103085.16;106899;1275;22695;-45
2024/04/12 03:11:10;;;;;;;;;;;;;;;13.52;94.35;103082.67;106994;1275;22444;-45
2024/04/12 03:13:37;;;;;;;;;;;;;;;13.52;94.47;103076.09;106905;1275;22627;-46
2024/04/12 03:16:08;;;;;;;;;;;;;;;13.54;94.48;103074.43;107033;1275;24329;-44
2024/04/12 03:18:37;;;;;;;;;;;;;;;13.55;94.40;103078.30;107224;1275;22634;-48
2024/04/12 03:21:04;;;;;;;;;;;;;;;13.54;94.26;103083.52;107175;1275;22502;-48
2024/04/12 03:23:31;;;;;;;;;;;;;;;13.51;94.10;103086.79;107090;1275;22596;-45
2024/04/12 03:25:58;;;;;;;;;;;;;;;13.48;94.12;103084.21;106845;1275;23690;-46
2024/04/12 03:28:25;;;;;;;;;;;;;;;13.47;94.22;103082.30;106871;1275;23937;-50
2024/04/12 03:30:54;;;;;;;;;;;;;;;13.46;94.29;103078.61;106886;1275;25462;-46
2024/04/12 03:33:21;;;;;;;;;;;;;;;13.46;94.33;103070.97;106890;1275;22508;-45
2024/04/12 03:35:48;;;;;;;;;;;;;;;13.46;94.27;103070.42;106823;1275;22557;-46
2024/04/12 03:38:24;;;;;;;;;;;;;;;13.48;94.24;103070.91;106891;1275;25190;-45
2024/04/12 03:40:58;;;;;;;;;;;;;;;13.49;94.19;103068.39;106975;1275;22977;-45
2024/04/12 03:43:27;;;;;;;;;;;;;;;13.48;94.14;103066.65;107022;1275;22654;-46
2024/04/12 03:45:57;;;;;;;;;;;;;;;13.47;94.32;103066.69;106903;1270;25339;-45
2024/04/12 03:48:25;;;;;;;;;;;;;;;13.46;94.10;103065.81;107008;1275;22517;-45
2024/04/12 03:51:01;;;;;;;;;;;;;;;13.44;94.13;103062.52;106866;1275;22679;-45
2024/04/12 03:53:30;;;;;;;;;;;;;;;13.43;94.24;103062.55;106943;1275;25416;-46
2024/04/12 03:55:57;;;;;;;;;;;;;;;13.43;94.16;103063.28;107051;1275;23058;-45
2024/04/12 03:58:24;;;;;;;;;;;;;;;13.43;94.18;103057.77;107069;1275;24170;-46
2024/04/12 04:00:51;;;;;;;;;;;;;;;13.42;94.17;103047.13;107100;1275;23872;-46
2024/04/12 04:03:31;;;;;;;;;;;;;;;13.42;94.19;103040.73;107133;1275;23642;-47
2024/04/12 04:05:58;;;;;;;;;;;;;;;13.42;94.19;103045.54;106883;1275;24370;-46
2024/04/12 04:08:29;;;;;;;;;;;;;;;13.43;94.20;103049.41;107046;1275;22671;-44
2024/04/12 04:10:56;;;;;;;;;;;;;;;13.43;94.13;103046.05;106937;1273;24248;-45
2024/04/12 04:13:27;;;;;;;;;;;;;;;13.43;94.22;103043.39;106857;1275;22439;-44
2024/04/12 04:15:55;;;;;;;;;;;;;;;13.42;94.12;103033.30;106976;1275;22432;-45
2024/04/12 04:18:24;;;;;;;;;;;;;;;13.40;94.19;103035.27;107008;1275;22499;-48
2024/04/12 04:20:52;;;;;;;;;;;;;;;13.41;94.36;103036.88;107171;1275;22539;-49
2024/04/12 04:23:20;;;;;;;;;;;;;;;13.43;94.44;103035.22;106981;1275;22701;-48
2024/04/12 04:25:51;;;;;;;;;;;;;;;13.44;94.31;103035.89;106885;1275;24260;-45
2024/04/12 04:28:30;;;;;;;;;;;;;;;13.46;94.33;103036.00;106815;1275;22905;-46
2024/04/12 04:31:05;;;;;;;;;;;;;;;13.47;94.31;103031.51;106910;1275;22669;-47
2024/04/12 04:33:38;;;;;;;;;;;;;;;13.47;94.24;103025.30;106888;1275;25363;-51
2024/04/12 04:36:12;;;;;;;;;;;;;;;13.45;94.12;103014.17;107140;1275;25228;-49
2024/04/12 04:38:39;;;;;;;;;;;;;;;13.43;94.14;103019.21;106993;1275;22780;-48
2024/04/12 04:41:06;;;;;;;;;;;;;;;13.42;94.04;103019.79;107063;1275;25037;-48
2024/04/12 04:43:34;;;;;;;;;;;;;;;13.42;94.18;103017.65;107106;1275;22682;-49
2024/04/12 04:48:56;;;;;;;;;;;;;;;13.43;94.33;103017.27;106920;1275;22506;-44
2024/04/12 04:51:24;;;;;;;;;;;;;;;13.43;94.10;103020.81;107103;1275;25316;-44
2024/04/12 04:53:52;;;;;;;;;;;;;;;13.43;94.13;103035.23;106852;1275;22684;-44
2024/04/12 04:56:24;;;;;;;;;;;;;;;13.42;94.18;103038.45;107100;1275;22432;-47
2024/04/12 04:58:51;;;;;;;;;;;;;;;13.38;94.15;103043.89;107197;1275;25392;-44
2024/04/12 05:01:18;;;;;;;;;;;;;;;13.37;94.30;103048.56;107030;1275;22505;-45
2024/04/12 05:03:49;;;;;;;;;;;;;;;13.36;94.45;103044.32;107010;1275;22616;-47
2024/04/12 05:06:25;;;;;;;;;;;;;;;13.35;94.60;103042.21;107047;1275;22492;-47
2024/04/12 05:08:53;;;;;;;;;;;;;;;13.34;94.63;103041.17;106799;1275;25358;-45
2024/04/12 05:11:20;;;;;;;;;;;;;;;13.35;94.88;103044.90;106983;1275;23127;-46
2024/04/12 05:13:50;;;;;;;;;;;;;;;13.37;94.80;103040.39;106922;1275;22501;-45
2024/04/12 05:16:19;;;;;;;;;;;;;;;13.40;94.83;103042.21;106940;1275;22564;-44
2024/04/12 05:18:48;;;;;;;;;;;;;;;13.42;95.02;103043.77;106951;1275;22632;-45
2024/04/12 05:21:17;;;;;;;;;;;;;;;13.45;95.03;103039.93;107034;1275;22497;-49
2024/04/12 05:23:44;;;;;;;;;;;;;;;13.46;95.00;103036.51;106857;1275;23138;-48
2024/04/12 05:26:11;;;;;;;;;;;;;;;13.47;94.86;103034.70;106877;1275;25352;-48
2024/04/12 05:28:38;;;;;;;;;;;;;;;13.46;94.77;103031.02;106872;1275;22443;-43
2024/04/12 05:31:13;;;;;;;;;;;;;;;13.45;94.79;103026.95;106906;1275;22511;-44
2024/04/12 05:33:42;;;;;;;;;;;;;;;13.46;95.02;103035.44;107001;1275;22504;-45
2024/04/12 05:36:14;;;;;;;;;;;;;;;13.48;95.15;103029.89;107278;1275;22639;-48
2024/04/12 05:38:41;;;;;;;;;;;;;;;13.50;95.04;103020.77;106875;1275;24063;-46
2024/04/12 05:41:09;;;;;;;;;;;;;;;13.53;95.19;103026.87;106820;1275;24234;-45
2024/04/12 05:43:38;;;;;;;;;;;;;;;13.57;95.37;103029.95;106846;1275;25994;-47
2024/04/12 05:46:05;;;;;;;;;;;;;;;13.60;95.29;103031.96;106836;1275;25271;-47
2024/04/12 05:48:36;;;;;;;;;;;;;;;13.62;95.26;103037.56;106983;1275;22453;-48
2024/04/12 05:51:04;;;;;;;;;;;;;;;13.64;95.14;103041.60;106901;1275;22918;-45
2024/04/12 05:53:31;;;;;;;;;;;;;;;13.64;95.10;103039.48;106875;1275;22788;-44
2024/04/12 05:58:45;;;;;;;;;;;;;;;13.70;95.36;103031.25;106999;1275;22972;-46
2024/04/12 06:01:11;;;;;;;;;;;;;;;13.74;95.37;103027.41;106887;1275;25207;-49
2024/04/12 06:03:42;;;;;;;;;;;;;;;13.76;95.25;103027.49;106861;1275;22547;-52
2024/04/12 06:06:13;;;;;;;;;;;;;;;13.79;95.18;103029.55;106805;1275;22671;-53
2024/04/12 06:08:45;;;;;;;;;;;;;;;13.81;95.06;103026.45;106939;1275;22445;-53
2024/04/12 06:11:13;;;;;;;;;;;;;;;13.82;95.12;103020.73;107066;1275;22496;-53
2024/04/12 06:13:40;;;;;;;;;;;;;;;13.84;95.16;103016.73;106953;1275;24206;-49
2024/04/12 06:16:11;;;;;;;;;;;;;;;13.85;95.06;103010.66;106922;1275;22565;-49
2024/04/12 06:18:38;;;;;;;;;;;;;;;13.88;95.03;103011.81;107155;1275;22655;-50
2024/04/12 06:21:10;;;;;;;;;;;;;;;13.89;94.88;103009.98;107145;1274;25323;-50
2024/04/12 06:23:37;;;;;;;;;;;;;;;13.92;94.82;103010.94;107097;1275;22492;-52
2024/04/12 06:26:05;;;;;;;;;;;;;;;13.95;94.83;103012.95;107016;1275;22491;-49
2024/04/12 06:28:32;;;;;;;;;;;;;;;13.99;94.93;103013.69;106931;1275;22497;-49
2024/04/12 06:30:59;;;;;;;;;;;;;;;14.05;94.88;103016.00;107119;1275;25276;-49
2024/04/12 06:33:28;;;;;;;;;;;;;;;14.09;94.83;103017.43;106940;1263;22500;-50
2024/04/12 06:36:04;;;;;;;;;;;;;;;14.13;94.99;103021.71;106940;1275;23368;-49
2024/04/12 06:38:32;;;;;;;;;;;;;;;14.18;94.91;103027.23;107055;1275;25338;-48
2024/04/12 06:41:03;;;;;;;;;;;;;;;14.22;94.81;103032.80;106825;1275;22461;-49
2024/04/12 06:43:33;;;;;;;;;;;;;;;14.24;94.71;103035.38;106901;1275;23108;-48
2024/04/12 06:46:02;;;;;;;;;;;;;;;14.25;94.41;103038.70;106988;1275;25461;-49
2024/04/12 06:48:29;;;;;;;;;;;;;;;14.24;94.33;103038.55;107027;1275;22936;-49
2024/04/12 06:50:57;;;;;;;;;;;;;;;14.26;94.08;103033.16;106847;1275;25393;-49
2024/04/12 06:53:24;;;;;;;;;;;;;;;14.29;94.39;103031.63;106938;1275;24249;-48
2024/04/12 06:55:58;;;;;;;;;;;;;;;14.35;94.40;103032.45;106875;1275;24206;-50
2024/04/12 06:58:25;;;;;;;;;;;;;;;14.40;94.30;103034.44;107030;1275;22499;-49
2024/04/12 07:00:58;;;;;;;;;;;;;;;14.43;94.17;103023.99;106871;1275;22808;-49
2024/04/12 07:03:25;;;;;;;;;;;;;;;14.46;94.13;103025.64;106957;1275;25170;-49
2024/04/12 07:05:56;;;;;;;;;;;;;;;14.46;94.01;103024.58;106883;1275;22446;-49
2024/04/12 07:08:26;;;;;;;;;;;;;;;14.49;94.09;103025.91;106921;1275;26006;-51
2024/04/12 07:10:54;;;;;;;;;;;;;;;14.52;94.02;103023.84;106865;1275;24202;-50
2024/04/12 07:13:26;;;;;;;;;;;;;;;14.54;94.02;103031.77;106963;1275;25396;-48
2024/04/12 07:15:56;;;;;;;;;;;;;;;14.57;93.90;103028.29;106908;1275;22959;-51
2024/04/12 07:18:26;;;;;;;;;;;;;;;14.59;93.75;103035.33;106817;1275;22819;-50
2024/04/12 07:21:14;;;;;;;;;;;;;;;14.62;93.66;103035.05;106875;1275;25291;-51
2024/04/12 07:23:48;;;;;;;;;;;;;;;14.66;93.61;103035.06;106870;1275;25295;-52
2024/04/12 07:26:25;;;;;;;;;;;;;;;14.70;93.53;103040.05;107095;1275;22648;-48
2024/04/12 07:29:02;;;;;;;;;;;;;;;14.75;93.61;103037.90;107049;1268;25284;-51
2024/04/12 07:31:31;;;;;;;;;;;;;;;14.81;93.46;103033.06;107054;1275;22447;-49
2024/04/12 07:34:01;;;;;;;;;;;;;;;14.84;93.38;103031.16;107093;1275;22499;-51
2024/04/12 07:36:32;;;;;;;;;;;;;;;14.87;93.41;103034.98;107148;1275;22521;-52
2024/04/12 07:39:02;;;;;;;;;;;;;;;14.89;93.17;103041.64;106936;1275;23864;-51
2024/04/12 07:41:43;;;;;;;;;;;;;;;14.91;92.89;103045.28;106990;1275;25968;-51
2024/04/12 07:44:14;;;;;;;;;;;;;;;14.93;93.04;103046.80;106895;1275;22624;-51
2024/04/12 07:46:49;;;;;;;;;;;;;;;14.97;93.09;103044.71;106824;1273;22519;-52
2024/04/12 07:49:17;;;;;;;;;;;;;;;15.02;92.97;103039.88;107091;1275;22446;-51
2024/04/12 07:51:45;;;;;;;;;;;;;;;15.07;92.71;103037.39;107275;1275;22445;-52
2024/04/12 07:54:12;;;;;;;;;;;;;;;15.10;92.84;103042.05;106985;1275;22685;-52
2024/04/12 07:56:46;;;;;;;;;;;;;;;15.13;92.40;103034.44;106934;1275;25326;-49
2024/04/12 07:59:17;;;;;;;;;;;;;;;15.15;92.36;103033.64;106882;1275;22434;-51
2024/04/12 08:01:45;;;;;;;;;;;;;;;15.17;92.28;103030.20;106846;1275;22499;-51
2024/04/12 08:04:36;;;;;;;;;;;;;;;15.18;92.25;103029.60;106929;1275;24374;-53
2024/04/12 08:07:17;;;;;;;;;;;;;;;15.20;92.02;103033.80;106904;1275;25214;-53
2024/04/12 08:09:46;;;;;;;;;;;;;;;15.22;91.94;103034.60;106908;1275;24347;-52
2024/04/12 08:12:49;;;;;;;;;;;;;;;15.27;92.01;103037.25;106938;1275;24660;-53
2024/04/12 08:15:07;;;;;;;;;;;;;;;15.33;91.66;103040.73;106827;1275;25287;-51
2024/04/12 08:17:39;;;;;;;;;;;;;;;15.39;91.38;103041.35;106845;1275;22629;-51
2024/04/12 08:20:14;;;;;;;;;;;;;;;15.45;91.53;103038.29;106869;1275;25396;-51
2024/04/12 08:22:46;;;;;;;;;;;;;;;15.51;91.32;103042.84;106881;1275;25220;-52
2024/04/12 08:25:17;;;;;;;;;;;;;;;15.57;91.18;103038.13;106903;1275;24275;-51
2024/04/12 08:27:45;;;;;;;;;;;;;;;15.60;90.81;103039.25;106872;1275;22661;-49
2024/04/12 08:30:19;;;;;;;;;;;;;;;15.64;90.68;103045.66;106853;1275;25214;-51
2024/04/12 08:32:49;;;;;;;;;;;;;;;15.67;90.13;103051.05;106944;1270;22594;-48
2024/04/12 08:35:20;;;;;;;;;;;;;;;15.67;89.56;103051.23;107067;1275;22763;-53
2024/04/12 08:37:48;;;;;;;;;;;;;;;15.68;89.32;103055.15;106942;1275;22512;-50
2024/04/12 08:40:21;;;;;;;;;;;;;;;15.71;89.34;103055.40;106898;1275;22768;-50
2024/04/12 08:42:48;;;;;;;;;;;;;;;15.74;89.35;103049.72;106960;1275;25344;-51
2024/04/12 08:45:18;;;;;;;;;;;;;;;15.79;89.38;103047.72;107035;1275;24150;-50
2024/04/12 08:48:01;;;;;;;;;;;;;;;15.86;89.13;103044.06;107127;1275;25392;-45
2024/04/12 08:50:31;;;;;;;;;;;;;;;15.92;88.91;103044.33;107174;1275;22453;-49
2024/04/12 08:52:58;;;;;;;;;;;;;;;15.98;88.64;103044.42;106972;1275;24202;-49
2024/04/12 08:55:28;;;;;;;;;;;;;;;16.04;88.67;103042.87;106936;1275;24223;-52
2024/04/12 08:58:02;;;;;;;;;;;;;;;16.12;88.77;103045.06;106878;1274;25360;-51
2024/04/12 09:00:32;;;;;;;;;;;;;;;16.19;88.56;103045.09;106982;1275;22435;-49
2024/04/12 09:03:04;;;;;;;;;;;;;;;16.26;88.36;103044.77;107021;1275;22594;-50
2024/04/12 09:05:32;;;;;;;;;;;;;;;16.32;88.23;103042.91;106989;1275;22790;-49
2024/04/12 09:07:59;;;;;;;;;;;;;;;16.35;87.77;103042.20;106891;1275;22797;-50
2024/04/12 09:10:35;;;;;;;;;;;;;;;16.38;87.10;103041.57;106839;1275;22471;-52
2024/04/12 09:13:08;;;;;;;;;;;;;;;16.40;87.04;103041.60;106858;1273;22991;-51
2024/04/12 09:15:35;;;;;;;;;;;;;;;16.44;87.16;103042.52;106848;1275;25422;-49
2024/04/12 09:18:13;;;;;;;;;;;;;;;16.48;86.62;103042.53;106927;1275;22431;-50
2024/04/12 09:20:41;;;;;;;;;;;;;;;16.52;86.56;103044.10;106880;1271;22652;-50
2024/04/12 09:23:14;;;;;;;;;;;;;;;16.57;86.23;103044.58;106973;1275;22495;-50
2024/04/12 09:25:56;;;;;;;;;;;;;;;16.65;86.48;103052.98;106849;1275;25347;-49
2024/04/12 09:28:26;;;;;;;;;;;;;;;16.75;86.27;103053.74;106854;1274;22498;-50
2024/04/12 09:33:50;;;;;;;;;;;;;;;16.97;85.82;103050.05;106910;1274;22496;-50
2024/04/12 09:36:28;;;;;;;;;;;;;;;17.12;85.47;103046.27;106978;1275;25395;-46
2024/04/12 09:38:59;;;;;;;;;;;;;;;17.28;85.21;103045.28;107078;1270;22542;-52
2024/04/12 09:41:29;;;;;;;;;;;;;;;17.43;84.51;103045.83;106932;1275;25355;-51
2024/04/12 09:43:59;;;;;;;;;;;;;;;17.54;84.07;103039.70;106999;1275;22661;-50
2024/04/12 10:37:22;;;;;;;;;;;;;;;17.65;83.61;103033.77;107052;1275;22444;-53
2024/04/12 10:39:55;;;;;;;;;;;;;;;19.13;75.05;103006.38;106855;1275;22474;-54
2024/04/12 10:42:25;;;;;;;;;;;;;;;19.19;74.26;103009.27;106847;1275;25883;-53
2024/04/12 10:44:56;;;;;;;;;;;;;;;19.23;73.99;103006.48;107030;1275;22680;-54
2024/04/12 10:47:23;;;;;;;;;;;;;;;19.30;73.99;103003.59;107044;1273;24276;-54
2024/04/12 10:49:51;;;;;;;;;;;;;;;19.38;74.16;103002.40;107057;1275;22485;-54
2024/04/12 10:52:28;;;;;;;;;;;;;;;19.48;74.30;102998.17;106957;1275;22530;-55
2024/04/12 10:54:55;;;;;;;;;;;;;;;19.60;74.17;102997.83;106868;1275;22824;-54
2024/04/12 10:57:27;;;;;;;;;;;;;;;19.68;73.65;102994.45;106868;1273;22649;-54
2024/04/12 11:00:00;;;;;;;;;;;;;;;19.77;73.62;102993.77;106878;1275;22700;-55
2024/04/12 11:02:33;;;;;;;;;;;;;;;19.90;73.70;102993.34;106971;1275;22813;-53
2024/04/12 11:07:44;;;;;;;;;;;;;;;20.08;71.68;102985.92;106876;1275;22513;-55
2024/04/12 11:10:23;;;;;;;;;;;;;;;20.15;70.85;102991.77;106946;1274;25256;-56
2024/04/12 11:12:55;;;;;;;;;;;;;;;20.27;70.58;102993.02;107043;1274;24202;-54
2024/04/12 11:32:00;;;;;;;;;;;;;;;21.35;66.87;102966.71;106986;1273;22502;-54
2024/04/12 11:34:30;;;;;;;;;;;;;;;21.49;65.99;102960.18;107232;1275;25273;-55
2024/04/12 11:37:10;;;;;;;;;;;;;;;21.57;65.45;102959.42;107013;1273;22447;-56
2024/04/12 11:39:38;;;;;;;;;;;;;;;21.59;64.58;102954.46;106892;1274;24295;-55
2024/04/12 11:42:05;;;;;;;;;;;;;;;21.59;63.69;102954.63;106929;1275;24307;-55
2024/04/12 11:44:33;;;;;;;;;;;;;;;21.62;63.21;102950.26;106823;1273;22483;-55
2024/04/12 11:47:03;;;;;;;;;;;;;;;21.72;62.43;102945.44;107024;1275;22441;-55
2024/04/12 11:49:46;;;;;;;;;;;;;;;21.85;62.93;102946.09;107267;1275;22538;-54
2024/04/12 11:52:16;;;;;;;;;;;;;;;22.04;62.43;102945.29;107101;1275;22650;-53
2024/04/12 11:54:51;;;;;;;;;;;;;;;22.26;62.11;102950.58;106898;1275;25333;-54
2024/04/12 11:57:22;;;;;;;;;;;;;;;22.46;59.92;102949.99;106946;1275;25409;-55
2024/04/12 11:59:59;;;;;;;;;;;;;;;22.59;58.05;102948.33;106943;1275;22555;-55
2024/04/12 12:02:31;;;;;;;;;;;;;;;22.64;57.21;102947.39;107230;1272;22508;-55
2024/04/12 12:04:59;;;;;;;;;;;;;;;22.74;57.27;102945.40;107038;1275;22444;-55
2024/04/12 12:07:29;;;;;;;;;;;;;;;22.86;56.94;102940.89;106873;1275;24236;-55
2024/04/12 12:09:57;;;;;;;;;;;;;;;22.99;56.05;102946.96;106973;1275;25391;-55
2024/04/12 12:12:26;;;;;;;;;;;;;;;23.12;55.84;102943.33;106825;1275;23925;-55
2024/04/12 12:14:54;;;;;;;;;;;;;;;23.27;55.72;102940.35;106946;1275;25263;-55
2024/04/12 12:17:21;;;;;;;;;;;;;;;23.42;55.45;102946.21;106922;1275;22577;-55
2024/04/12 12:19:50;;;;;;;;;;;;;;;23.56;55.09;102945.47;106901;1271;24116;-55
2024/04/12 12:22:18;;;;;;;;;;;;;;;23.67;54.15;102941.72;106894;1272;25426;-55
2024/04/12 12:24:45;;;;;;;;;;;;;;;23.77;54.17;102938.96;106998;1275;22814;-55
2024/04/12 12:27:12;;;;;;;;;;;;;;;23.89;54.02;102933.15;106926;1275;22800;-55
2024/04/12 12:29:42;;;;;;;;;;;;;;;24.00;53.49;102934.27;106948;1275;25351;-55
2024/04/12 12:32:09;;;;;;;;;;;;;;;24.08;52.94;102934.34;106954;1275;25324;-54
2024/04/12 12:34:41;;;;;;;;;;;;;;;24.12;52.68;102931.79;106879;1275;22496;-55
2024/04/12 12:37:09;;;;;;;;;;;;;;;24.18;52.74;102931.14;106984;1275;24123;-55
2024/04/12 12:39:37;;;;;;;;;;;;;;;24.24;52.63;102931.56;106902;1275;22735;-54
2024/04/12 12:42:12;;;;;;;;;;;;;;;24.30;52.66;102935.91;106874;1275;24573;-55
2024/04/12 12:44:39;;;;;;;;;;;;;;;24.37;52.64;102935.15;106843;1270;22715;-54
2024/04/12 12:47:06;;;;;;;;;;;;;;;24.44;52.25;102932.12;106898;1275;22463;-55
2024/04/12 12:49:50;;;;;;;;;;;;;;;24.52;51.73;102929.48;106756;1270;25323;-55
2024/04/12 12:52:17;;;;;;;;;;;;;;;24.59;51.33;102929.80;107037;1271;24996;-54
2024/04/12 12:54:47;;;;;;;;;;;;;;;24.65;51.08;102927.30;106953;1275;24167;-55
2024/04/12 12:57:17;;;;;;;;;;;;;;;24.74;51.03;102925.27;106968;1275;25249;-55
2024/04/12 12:59:45;;;;;;;;;;;;;;;24.88;51.19;102920.09;106930;1275;22502;-55
2024/04/12 13:02:15;;;;;;;;;;;;;;;25.07;51.26;102907.48;106870;1275;22844;-55
2024/04/12 13:04:42;;;;;;;;;;;;;;;25.27;51.00;102900.89;106908;1275;22553;-54
2024/04/12 13:07:10;;;;;;;;;;;;;;;25.40;50.17;102901.70;106927;1275;22455;-55
2024/04/12 13:09:37;;;;;;;;;;;;;;;25.49;49.73;102897.88;106939;1275;24283;-55
2024/04/12 13:12:10;;;;;;;;;;;;;;;25.59;49.26;102890.85;107010;1275;22923;-55
2024/04/12 13:14:37;;;;;;;;;;;;;;;25.71;48.71;102884.03;107008;1275;25162;-55
2024/04/12 13:17:12;;;;;;;;;;;;;;;25.80;48.88;102881.04;106926;1275;22469;-54
2024/04/12 13:19:41;;;;;;;;;;;;;;;25.93;48.90;102881.14;107001;1274;22442;-55
2024/04/12 13:22:11;;;;;;;;;;;;;;;26.03;48.41;102877.37;106926;1272;22542;-55
2024/04/12 13:24:39;;;;;;;;;;;;;;;26.12;48.22;102873.61;106920;1275;23820;-55
2024/04/12 13:27:08;;;;;;;;;;;;;;;26.21;47.95;102869.71;106877;1274;22653;-55
2024/04/12 13:29:36;;;;;;;;;;;;;;;26.26;47.21;102869.05;106945;1273;22631;-56
2024/04/12 13:32:09;;;;;;;;;;;;;;;26.32;47.09;102869.86;106836;1275;22606;-55
2024/04/12 13:34:37;;;;;;;;;;;;;;;26.35;46.81;102866.06;106916;1273;22937;-55
2024/04/12 13:37:06;;;;;;;;;;;;;;;26.36;46.46;102868.00;106872;1275;22524;-55
2024/04/12 13:39:34;;;;;;;;;;;;;;;26.32;46.22;102867.42;107022;1273;22506;-55
2024/04/12 13:42:10;;;;;;;;;;;;;;;26.34;46.51;102867.33;106901;1275;24277;-55
2024/04/12 13:53:09;;;;;;;;;;;;;;;26.06;45.23;102859.70;103586;1312;544509;-55
2024/04/12 13:55:36;;;;;;;;;;;;;;;25.93;45.39;102857.20;106125;1284;22670;-55
2024/04/12 13:58:05;;;;;;;;;;;;;;;25.83;45.52;102860.77;106166;1288;22858;-55
2024/04/12 14:00:32;;;;;;;;;;;;;;;25.75;45.73;102858.13;106436;1288;25379;-55
2024/04/12 14:03:05;;;;;;;;;;;;;;;25.68;46.19;102857.33;106197;1288;22443;-55
2024/04/12 14:05:36;;;;;;;;;;;;;;;25.65;46.44;102857.20;106040;1286;327097;-55
2024/04/12 14:08:09;;;;;;;;;;;;;;;25.61;46.55;102855.35;106194;1284;22464;-55